Time;durP1;ratioP1;P1;durP2;ratioP2;P2;SDS_P1;SDS_P2;PMS_P1;PMS_P2;Temp;Humidity;BMP_temperature;BMP_pressure;BME280_temperature;BME280_humidity;BME280_pressure;Samples;Min_cycle;Max_cycle;Signal;HPM_P1;HPM_P2
2022/02/24 00:02:23;;;;;;;1.67;0.97;;;24.20;33.40;;;;;;5115228;28;20437;-73
2022/02/24 00:04:49;;;;;;;2.13;1.00;;;24.20;33.40;;;;;;5115740;28;20376;-73
2022/02/24 00:07:16;;;;;;;1.85;0.90;;;24.20;33.60;;;;;;5114621;28;20407;-73
2022/02/24 00:09:42;;;;;;;1.83;0.80;;;24.20;33.50;;;;;;5115188;28;20395;-73
2022/02/24 00:12:08;;;;;;;1.40;0.87;;;24.20;33.40;;;;;;5115071;28;20392;-72
2022/02/24 00:14:34;;;;;;;1.40;0.80;;;24.20;33.30;;;;;;5115050;28;20376;-72
2022/02/24 00:17:00;;;;;;;1.80;0.90;;;24.20;33.90;;;;;;5114963;28;20885;-73
2022/02/24 00:19:25;;;;;;;1.40;0.70;;;24.10;33.10;;;;;;5114584;28;20388;-73
2022/02/24 00:21:51;;;;;;;1.50;0.85;;;24.10;33.30;;;;;;5114846;28;20424;-72
2022/02/24 00:24:17;;;;;;;1.60;0.60;;;24.00;33.80;;;;;;5114732;28;20383;-74
2022/02/24 00:26:42;;;;;;;1.63;0.80;;;24.00;33.40;;;;;;5114942;28;20412;-73
2022/02/24 00:29:08;;;;;;;1.80;0.87;;;24.00;33.30;;;;;;5114113;28;20392;-73
2022/02/24 00:31:34;;;;;;;1.50;0.70;;;23.90;33.10;;;;;;5114918;28;20392;-73
2022/02/24 00:34:00;;;;;;;1.58;0.73;;;23.90;33.10;;;;;;5114679;28;20487;-72
2022/02/24 00:36:26;;;;;;;1.60;0.82;;;23.90;33.00;;;;;;5114699;28;20420;-72
2022/02/24 00:38:51;;;;;;;1.77;1.00;;;23.90;33.30;;;;;;5114490;28;20945;-72
2022/02/24 00:41:18;;;;;;;1.10;0.60;;;23.90;33.10;;;;;;5114056;28;20385;-72
2022/02/24 00:43:44;;;;;;;1.52;0.70;;;23.90;33.10;;;;;;5114619;28;20922;-74
2022/02/24 00:46:10;;;;;;;2.22;0.77;;;23.90;33.00;;;;;;5114246;28;20401;-74
2022/02/24 00:48:35;;;;;;;1.77;0.80;;;23.90;33.10;;;;;;5115072;28;20871;-74
2022/02/24 00:51:01;;;;;;;1.23;0.60;;;23.90;32.90;;;;;;5115362;28;20471;-73
2022/02/24 00:53:26;;;;;;;1.45;0.60;;;23.90;32.90;;;;;;5114253;28;20429;-72
2022/02/24 00:55:52;;;;;;;2.00;0.60;;;23.90;32.90;;;;;;5114316;28;20421;-72
2022/02/24 00:58:18;;;;;;;1.30;0.55;;;23.80;33.00;;;;;;5114215;28;20411;-74
2022/02/24 01:00:43;;;;;;;1.33;0.70;;;23.80;33.00;;;;;;5113027;28;20436;-74
2022/02/24 01:03:09;;;;;;;1.20;0.63;;;23.80;32.90;;;;;;5113939;28;20388;-74
2022/02/24 01:05:35;;;;;;;1.80;0.90;;;23.80;32.70;;;;;;5112772;28;20862;-72
2022/02/24 01:08:00;;;;;;;0.90;0.60;;;23.80;32.70;;;;;;5112660;28;20399;-72
2022/02/24 01:10:26;;;;;;;1.17;0.68;;;23.80;32.80;;;;;;5114049;28;20934;-74
2022/02/24 01:12:52;;;;;;;1.37;0.60;;;23.80;32.70;;;;;;5112623;28;20801;-74
2022/02/24 01:15:17;;;;;;;1.20;0.70;;;23.80;32.60;;;;;;5112134;28;20380;-74
2022/02/24 01:17:44;;;;;;;0.80;0.50;;;23.70;32.50;;;;;;5112528;28;20396;-74
2022/02/24 01:20:10;;;;;;;1.58;0.68;;;23.70;32.30;;;;;;5112532;28;20857;-74
2022/02/24 01:22:36;;;;;;;1.30;0.60;;;23.70;32.30;;;;;;5112304;28;20451;-74
2022/02/24 01:25:04;;;;;;;1.60;0.80;;;23.60;32.50;;;;;;5113648;28;20472;-74
2022/02/24 01:27:29;;;;;;;1.00;0.50;;;23.60;32.50;;;;;;5113296;28;20400;-74
2022/02/24 01:29:55;;;;;;;1.10;0.50;;;23.60;32.60;;;;;;5113564;28;20385;-74
2022/02/24 01:32:21;;;;;;;1.10;0.50;;;23.60;32.50;;;;;;5112350;28;20388;-73
2022/02/24 01:34:46;;;;;;;2.40;0.60;;;23.60;32.50;;;;;;5112832;28;20383;-74
2022/02/24 01:37:12;;;;;;;1.10;0.50;;;23.60;32.60;;;;;;5113299;28;20395;-73
2022/02/24 01:39:37;;;;;;;1.63;0.60;;;23.60;32.60;;;;;;5112043;28;20422;-73
2022/02/24 01:42:03;;;;;;;0.93;0.60;;;23.60;32.50;;;;;;5113322;28;20380;-72
2022/02/24 01:44:40;;;;;;;1.55;0.60;;;23.50;32.50;;;;;;5111899;28;20420;-72
2022/02/24 01:47:06;;;;;;;1.05;0.50;;;23.60;32.50;;;;;;5111853;28;20389;-73
2022/02/24 01:49:32;;;;;;;0.95;0.60;;;23.50;32.50;;;;;;5112897;28;20404;-72
2022/02/24 01:51:58;;;;;;;1.05;0.60;;;23.50;32.70;;;;;;5111668;28;20393;-73
2022/02/24 01:54:24;;;;;;;0.80;0.50;;;23.60;32.80;;;;;;5113234;28;20388;-72
2022/02/24 01:56:50;;;;;;;0.90;0.50;;;23.50;32.60;;;;;;5111419;28;20396;-74
2022/02/24 01:59:16;;;;;;;0.90;0.52;;;23.50;32.30;;;;;;5111363;28;20471;-71
2022/02/24 02:01:42;;;;;;;0.95;0.50;;;23.50;32.70;;;;;;5113030;28;20888;-73
2022/02/24 02:04:08;;;;;;;1.03;0.70;;;23.40;32.90;;;;;;5112887;28;20746;-72
2022/02/24 02:06:34;;;;;;;1.00;0.60;;;23.40;32.90;;;;;;5113089;27;20418;-72
2022/02/24 02:09:00;;;;;;;0.90;0.60;;;23.40;32.80;;;;;;5112840;28;20734;-71
2022/02/24 02:11:26;;;;;;;1.17;0.57;;;23.40;32.90;;;;;;5112650;28;20392;-71
2022/02/24 02:13:51;;;;;;;0.90;0.65;;;23.40;33.40;;;;;;5112635;28;20388;-73
2022/02/24 02:16:17;;;;;;;1.60;0.60;;;23.40;32.80;;;;;;5112791;28;20497;-72
2022/02/24 02:18:43;;;;;;;1.52;0.60;;;23.40;32.90;;;;;;5112611;28;20412;-73
2022/02/24 02:21:08;;;;;;;0.93;0.50;;;23.30;32.80;;;;;;5112593;28;20437;-72
2022/02/24 02:23:34;;;;;;;1.30;0.50;;;23.30;32.80;;;;;;5112373;28;21058;-72
2022/02/24 02:26:00;;;;;;;1.53;0.57;;;23.30;32.80;;;;;;5112420;28;20384;-73
2022/02/24 02:28:26;;;;;;;1.10;0.57;;;23.30;32.70;;;;;;5112505;28;20441;-74
2022/02/24 02:30:51;;;;;;;0.60;0.50;;;23.30;32.70;;;;;;5112252;28;20391;-74
2022/02/24 02:33:17;;;;;;;1.00;0.50;;;23.30;32.70;;;;;;5112072;28;20479;-73
2022/02/24 02:35:43;;;;;;;1.07;0.60;;;23.30;32.70;;;;;;5112339;28;20376;-72
2022/02/24 02:38:08;;;;;;;0.90;0.50;;;23.30;33.10;;;;;;5112753;28;20400;-74
2022/02/24 02:40:37;;;;;;;1.60;0.60;;;23.30;32.80;;;;;;5112811;28;20384;-74
2022/02/24 02:43:07;;;;;;;0.80;0.50;;;23.30;32.70;;;;;;5112292;28;20388;-73
2022/02/24 02:45:33;;;;;;;0.80;0.50;;;23.20;32.70;;;;;;5111594;28;20450;-72
2022/02/24 02:48:00;;;;;;;1.00;0.50;;;23.20;32.60;;;;;;5112346;28;20388;-71
2022/02/24 02:50:27;;;;;;;0.98;0.50;;;23.20;33.20;;;;;;5112983;28;20900;-71
2022/02/24 02:52:53;;;;;;;1.00;0.55;;;23.20;32.50;;;;;;5111227;27;20889;-72
2022/02/24 02:55:20;;;;;;;1.10;0.60;;;23.20;32.50;;;;;;5111229;27;20476;-74
2022/02/24 02:57:46;;;;;;;0.93;0.60;;;23.10;32.40;;;;;;5111381;28;20488;-75
2022/02/24 03:00:14;;;;;;;1.00;0.60;;;23.10;32.30;;;;;;5111848;28;20387;-74
2022/02/24 03:02:41;;;;;;;0.73;0.50;;;23.10;32.30;;;;;;5112052;28;20384;-72
2022/02/24 03:05:08;;;;;;;0.90;0.60;;;23.10;32.70;;;;;;5111895;28;20416;-74
2022/02/24 03:07:33;;;;;;;0.80;0.60;;;23.10;32.20;;;;;;5111324;28;20463;-73
2022/02/24 03:09:59;;;;;;;1.10;0.60;;;23.10;32.30;;;;;;5111896;28;20442;-71
2022/02/24 03:12:25;;;;;;;1.60;0.70;;;23.10;32.20;;;;;;5111922;28;20380;-71
2022/02/24 03:14:51;;;;;;;0.80;0.50;;;23.10;32.20;;;;;;5111819;28;20388;-72
2022/02/24 03:17:16;;;;;;;0.90;0.50;;;23.10;32.20;;;;;;5111384;28;20388;-72
2022/02/24 03:19:42;;;;;;;1.00;0.50;;;23.00;32.20;;;;;;5111821;28;20908;-71
2022/02/24 03:22:09;;;;;;;1.80;0.60;;;23.10;32.20;;;;;;5111745;28;20380;-73
2022/02/24 03:24:35;;;;;;;0.95;0.47;;;23.00;32.10;;;;;;5111815;28;20384;-73
2022/02/24 03:27:01;;;;;;;1.10;0.50;;;23.00;32.20;;;;;;5110488;28;20404;-73
2022/02/24 03:29:26;;;;;;;1.17;0.60;;;23.00;32.20;;;;;;5110074;28;20396;-72
2022/02/24 03:31:52;;;;;;;1.20;0.50;;;23.00;32.20;;;;;;5111716;28;20399;-72
2022/02/24 03:34:18;;;;;;;0.90;0.55;;;23.00;32.10;;;;;;5111747;28;20388;-73
2022/02/24 03:36:43;;;;;;;0.80;0.50;;;23.00;32.00;;;;;;5110471;28;20395;-73
2022/02/24 03:39:09;;;;;;;0.90;0.60;;;23.00;31.90;;;;;;5110383;28;20413;-72
2022/02/24 03:41:35;;;;;;;1.07;0.67;;;23.00;32.00;;;;;;5110778;28;20901;-72
2022/02/24 03:44:00;;;;;;;0.90;0.50;;;23.00;32.00;;;;;;5111486;28;20376;-73
2022/02/24 03:46:26;;;;;;;0.80;0.60;;;23.00;32.00;;;;;;5111467;28;20844;-71
2022/02/24 03:48:52;;;;;;;1.00;0.57;;;22.90;32.40;;;;;;5111381;28;20396;-73
2022/02/24 03:51:17;;;;;;;1.07;0.60;;;22.90;31.90;;;;;;5111268;28;20380;-72
2022/02/24 03:53:44;;;;;;;1.02;0.60;;;22.90;32.00;;;;;;5111641;28;20384;-73
2022/02/24 03:56:10;;;;;;;1.02;0.65;;;22.90;32.00;;;;;;5111226;28;20399;-72
2022/02/24 03:58:36;;;;;;;1.20;0.70;;;22.90;32.10;;;;;;5111438;28;20411;-73
2022/02/24 04:01:02;;;;;;;1.10;0.60;;;22.90;32.30;;;;;;5111341;28;20384;-73
2022/02/24 04:03:27;;;;;;;1.23;0.68;;;22.80;31.70;;;;;;5112527;28;20502;-72
2022/02/24 04:05:53;;;;;;;2.60;0.50;;;22.90;31.70;;;;;;5115313;28;20881;-73
2022/02/24 04:08:19;;;;;;;2.83;0.80;;;22.90;31.90;;;;;;5115283;28;20483;-73
2022/02/24 04:10:45;;;;;;;1.92;0.70;;;22.90;32.20;;;;;;5115001;28;20387;-73
2022/02/24 04:13:11;;;;;;;3.33;2.15;;;23.00;33.00;;;;;;5113665;28;20499;-72
2022/02/24 04:15:37;;;;;;;2.28;1.25;;;23.10;33.70;;;;;;5114621;28;20377;-72
2022/02/24 04:18:03;;;;;;;4.37;1.60;;;23.10;33.30;;;;;;5114809;28;20457;-73
2022/02/24 04:20:30;;;;;;;5.40;1.00;;;23.10;33.80;;;;;;5114917;27;20384;-73
2022/02/24 04:22:55;;;;;;;4.70;0.90;;;23.10;33.90;;;;;;5115198;27;20380;-73
2022/02/24 04:25:21;;;;;;;3.80;0.80;;;23.10;34.50;;;;;;5113607;28;20847;-73
2022/02/24 04:27:49;;;;;;;7.95;1.08;;;22.60;34.20;;;;;;5113696;28;20376;-73
2022/02/24 04:30:16;;;;;;;4.53;1.17;;;23.20;34.70;;;;;;5114647;28;20419;-73
2022/02/24 04:32:42;;;;;;;9.98;1.05;;;23.20;35.10;;;;;;5112840;28;20502;-72
2022/02/24 04:35:09;;;;;;;3.60;0.90;;;23.20;34.60;;;;;;5114459;28;20392;-72
2022/02/24 04:37:35;;;;;;;7.13;1.00;;;23.30;35.10;;;;;;5114148;27;20424;-73
2022/02/24 04:40:02;;;;;;;5.88;1.10;;;23.30;35.50;;;;;;5112661;28;20392;-73
2022/02/24 04:42:28;;;;;;;6.93;0.90;;;23.30;35.80;;;;;;5113330;28;20472;-73
2022/02/24 04:44:53;;;;;;;5.13;0.90;;;23.30;35.70;;;;;;5112960;28;20436;-73
2022/02/24 04:47:19;;;;;;;4.03;0.70;;;23.30;35.30;;;;;;5114356;28;20894;-73
2022/02/24 04:49:45;;;;;;;4.10;0.70;;;23.20;35.40;;;;;;5114676;28;20792;-73
2022/02/24 04:52:11;;;;;;;4.68;0.88;;;23.20;35.10;;;;;;5114115;28;20376;-73
2022/02/24 04:54:36;;;;;;;3.30;0.68;;;23.10;35.40;;;;;;5112884;28;20396;-73
2022/02/24 04:57:02;;;;;;;7.32;1.05;;;23.10;34.50;;;;;;5112638;28;20483;-73
2022/02/24 04:59:28;;;;;;;9.65;1.15;;;23.10;34.40;;;;;;5113750;28;20408;-75
2022/02/24 05:01:53;;;;;;;8.50;0.98;;;23.10;34.40;;;;;;5113983;28;20965;-73
2022/02/24 05:04:19;;;;;;;4.10;0.70;;;23.10;34.00;;;;;;5114122;28;20772;-73
2022/02/24 05:06:45;;;;;;;4.63;1.00;;;23.10;34.10;;;;;;5113890;28;20379;-73
2022/02/24 05:09:10;;;;;;;5.90;0.80;;;23.10;33.70;;;;;;5112507;28;20393;-73
2022/02/24 05:11:36;;;;;;;4.30;0.85;;;23.10;33.50;;;;;;5111696;28;20750;-73
2022/02/24 05:14:02;;;;;;;3.30;0.80;;;23.10;33.30;;;;;;5112120;28;20543;-73
2022/02/24 05:16:28;;;;;;;2.33;0.80;;;23.10;33.10;;;;;;5111653;28;20972;-73
2022/02/24 05:18:53;;;;;;;2.60;0.60;;;23.10;33.40;;;;;;5112312;28;20415;-74
2022/02/24 05:21:19;;;;;;;2.45;0.60;;;23.00;33.20;;;;;;5112318;28;20466;-74
2022/02/24 05:23:45;;;;;;;2.30;0.80;;;22.90;33.20;;;;;;5113493;28;20460;-74
2022/02/24 05:26:10;;;;;;;1.70;0.60;;;22.90;33.20;;;;;;5112377;28;20387;-74
2022/02/24 05:28:36;;;;;;;2.57;0.80;;;22.90;33.10;;;;;;5113439;28;20751;-73
2022/02/24 05:31:02;;;;;;;3.50;0.70;;;22.90;33.60;;;;;;5109612;28;20395;-73
2022/02/24 05:33:29;;;;;;;2.30;0.80;;;23.00;32.90;;;;;;5113089;28;20867;-73
2022/02/24 05:35:55;;;;;;;4.35;0.60;;;22.90;33.00;;;;;;5113316;28;20380;-74
2022/02/24 05:38:22;;;;;;;4.75;0.60;;;22.90;33.20;;;;;;5113390;28;20416;-74
2022/02/24 05:40:48;;;;;;;2.65;0.70;;;22.90;33.70;;;;;;5113389;27;20380;-73
2022/02/24 05:43:14;;;;;;;7.35;0.90;;;22.90;33.20;;;;;;5111542;28;20384;-74
2022/02/24 05:45:40;;;;;;;2.20;0.57;;;22.90;34.50;;;;;;5112054;28;20422;-74
2022/02/24 05:48:06;;;;;;;4.80;0.70;;;22.90;33.80;;;;;;5112965;27;20395;-73
2022/02/24 05:50:32;;;;;;;3.45;0.60;;;22.90;33.40;;;;;;5111934;28;20747;-73
2022/02/24 05:53:02;;;;;;;3.40;0.90;;;22.90;33.70;;;;;;5112985;28;20393;-74
2022/02/24 05:55:30;;;;;;;5.37;0.80;;;22.90;32.80;;;;;;5111388;28;20870;-74
2022/02/24 05:57:56;;;;;;;4.00;0.70;;;22.80;33.00;;;;;;5111592;28;20812;-73
2022/02/24 06:00:21;;;;;;;3.65;1.00;;;22.80;33.70;;;;;;5111751;28;20392;-73
2022/02/24 06:02:47;;;;;;;4.00;0.83;;;22.80;33.30;;;;;;5112815;28;20384;-72
2022/02/24 06:05:12;;;;;;;5.73;0.80;;;22.80;33.30;;;;;;5112870;28;20389;-73
2022/02/24 06:07:38;;;;;;;3.47;0.75;;;22.70;33.30;;;;;;5111233;28;20381;-72
2022/02/24 06:10:05;;;;;;;3.33;0.63;;;22.70;33.20;;;;;;5112666;28;20936;-73
2022/02/24 06:12:30;;;;;;;4.85;0.88;;;22.70;33.20;;;;;;5112804;28;20407;-73
2022/02/24 06:14:56;;;;;;;5.77;1.00;;;22.70;33.30;;;;;;5112772;28;20423;-73
2022/02/24 06:17:21;;;;;;;2.87;0.60;;;22.70;33.20;;;;;;5112367;28;20469;-73
2022/02/24 06:19:47;;;;;;;4.07;0.60;;;22.80;32.90;;;;;;5112111;28;20813;-73
2022/02/24 06:22:13;;;;;;;5.63;0.80;;;22.70;32.70;;;;;;5110781;28;20396;-73
2022/02/24 06:24:38;;;;;;;4.18;0.80;;;22.50;33.00;;;;;;5111037;28;20384;-74
2022/02/24 06:27:04;;;;;;;2.30;0.53;;;22.70;33.00;;;;;;5110907;28;20776;-74
2022/02/24 06:29:30;;;;;;;1.98;0.68;;;22.60;33.00;;;;;;5111971;28;20468;-73
2022/02/24 06:31:55;;;;;;;2.20;0.63;;;22.60;32.80;;;;;;5110961;28;20431;-74
2022/02/24 06:34:21;;;;;;;2.47;0.80;;;22.60;33.00;;;;;;5112438;28;21023;-74
2022/02/24 06:36:47;;;;;;;2.40;0.70;;;22.60;32.80;;;;;;5111041;28;20913;-74
2022/02/24 06:39:12;;;;;;;2.40;0.63;;;22.50;32.80;;;;;;5110671;28;20416;-73
2022/02/24 06:41:38;;;;;;;3.22;0.70;;;22.50;32.90;;;;;;5110545;28;20949;-74
2022/02/24 06:44:04;;;;;;;1.50;0.60;;;22.50;32.80;;;;;;5112078;28;20441;-74
2022/02/24 06:46:29;;;;;;;3.28;0.70;;;22.50;33.30;;;;;;5111763;28;20445;-74
2022/02/24 06:48:55;;;;;;;5.45;1.10;;;22.50;32.70;;;;;;5112168;28;20390;-73
2022/02/24 06:51:21;;;;;;;1.95;0.60;;;22.50;32.70;;;;;;5110944;28;20780;-73
2022/02/24 06:53:47;;;;;;;1.52;0.70;;;22.70;33.10;;;;;;5110499;28;20761;-74
2022/02/24 06:56:12;;;;;;;1.00;0.50;;;22.50;32.60;;;;;;5112143;28;20380;-73
2022/02/24 06:58:38;;;;;;;1.20;0.40;;;22.50;32.50;;;;;;5110783;28;20413;-73
2022/02/24 07:01:04;;;;;;;1.07;0.50;;;22.50;32.40;;;;;;5110247;28;20436;-73
2022/02/24 07:03:29;;;;;;;1.60;0.50;;;22.50;32.40;;;;;;5111202;28;20419;-73
2022/02/24 07:05:55;;;;;;;0.97;0.47;;;22.50;32.40;;;;;;5110641;28;20420;-74
2022/02/24 07:08:21;;;;;;;1.80;0.50;;;22.50;32.40;;;;;;5110473;28;20477;-73
2022/02/24 07:10:47;;;;;;;2.10;0.50;;;22.50;32.40;;;;;;5110641;28;20460;-73
2022/02/24 07:13:12;;;;;;;1.60;0.50;;;22.50;32.30;;;;;;5110357;28;20821;-73
2022/02/24 07:15:38;;;;;;;2.07;0.40;;;22.50;32.30;;;;;;5111329;28;20392;-74
2022/02/24 07:18:04;;;;;;;1.88;0.60;;;22.50;32.40;;;;;;5111717;28;20408;-73
2022/02/24 07:20:29;;;;;;;0.97;0.50;;;22.50;32.30;;;;;;5110224;28;20476;-73
2022/02/24 07:22:55;;;;;;;1.20;0.50;;;22.50;32.30;;;;;;5111811;28;20396;-73
2022/02/24 07:25:21;;;;;;;1.10;0.40;;;22.50;32.30;;;;;;5110748;28;20388;-73
2022/02/24 07:27:46;;;;;;;1.65;0.60;;;22.50;32.20;;;;;;5109736;28;20823;-74
2022/02/24 07:30:13;;;;;;;1.57;0.50;;;22.50;32.00;;;;;;5110616;28;20598;-74
2022/02/24 07:32:40;;;;;;;1.75;0.60;;;22.50;32.10;;;;;;5110353;28;20388;-74
2022/02/24 07:35:07;;;;;;;1.65;0.60;;;22.50;32.00;;;;;;5110413;28;21031;-73
2022/02/24 07:37:32;;;;;;;1.20;0.55;;;22.50;32.10;;;;;;5109834;28;20388;-73
2022/02/24 07:39:58;;;;;;;0.87;0.53;;;22.50;32.10;;;;;;5115693;28;20395;-73
2022/02/24 07:42:24;;;;;;;1.20;0.70;;;22.50;32.10;;;;;;5115778;28;20395;-73
2022/02/24 07:44:49;;;;;;;1.10;0.50;;;22.50;32.60;;;;;;5115433;28;20940;-74
2022/02/24 07:47:15;;;;;;;0.73;0.40;;;22.50;32.10;;;;;;5115452;28;20749;-73
2022/02/24 07:49:41;;;;;;;0.85;0.40;;;22.50;32.00;;;;;;5115257;27;20388;-73
2022/02/24 07:52:08;;;;;;;0.80;0.40;;;22.50;32.00;;;;;;5115539;28;20772;-73
2022/02/24 07:54:34;;;;;;;1.27;0.50;;;22.50;31.70;;;;;;5115545;28;20469;-74
2022/02/24 07:56:59;;;;;;;0.80;0.50;;;22.60;31.60;;;;;;5114408;28;20840;-73
2022/02/24 07:59:25;;;;;;;1.13;0.40;;;22.60;31.50;;;;;;5115094;28;20951;-73
2022/02/24 08:01:51;;;;;;;1.30;0.50;;;22.60;31.40;;;;;;5115160;28;20388;-73
2022/02/24 08:04:17;;;;;;;1.08;0.50;;;22.60;31.50;;;;;;5114034;28;20384;-73
2022/02/24 08:06:43;;;;;;;1.10;0.40;;;22.70;31.50;;;;;;5115391;28;20878;-74
2022/02/24 08:09:09;;;;;;;0.93;0.40;;;22.70;31.60;;;;;;5115293;28;20473;-73
2022/02/24 08:11:35;;;;;;;1.10;0.50;;;22.60;32.00;;;;;;5113422;28;20380;-73
2022/02/24 08:14:01;;;;;;;1.20;0.50;;;22.70;31.90;;;;;;5113908;28;20388;-73
2022/02/24 08:16:27;;;;;;;1.02;0.43;;;22.70;31.40;;;;;;5113636;28;20377;-73
2022/02/24 08:18:55;;;;;;;1.20;0.68;;;22.70;31.20;;;;;;5114907;28;20423;-73
2022/02/24 08:21:22;;;;;;;1.20;0.50;;;22.70;31.30;;;;;;5113748;28;20388;-73
2022/02/24 08:23:48;;;;;;;0.85;0.50;;;22.70;31.20;;;;;;5113114;28;20949;-73
2022/02/24 08:26:14;;;;;;;0.98;0.60;;;22.80;31.20;;;;;;5114650;28;20394;-74
2022/02/24 08:28:40;;;;;;;1.37;0.60;;;22.80;31.00;;;;;;5114866;28;20381;-74
2022/02/24 08:31:06;;;;;;;0.95;0.43;;;22.90;31.10;;;;;;5114778;28;20384;-74
2022/02/24 08:33:32;;;;;;;1.60;0.40;;;22.90;31.00;;;;;;5114530;28;20427;-74
2022/02/24 08:35:57;;;;;;;1.60;0.40;;;22.90;31.20;;;;;;5114980;28;20410;-74
2022/02/24 08:38:23;;;;;;;1.70;0.50;;;23.00;30.90;;;;;;5114606;28;20447;-74
2022/02/24 08:40:49;;;;;;;0.90;0.50;;;23.00;30.70;;;;;;5114634;28;20874;-73
2022/02/24 08:43:14;;;;;;;0.73;0.40;;;23.00;30.60;;;;;;5114528;28;20463;-73
2022/02/24 08:45:40;;;;;;;0.70;0.40;;;23.00;30.50;;;;;;5113987;28;20400;-74
2022/02/24 08:48:06;;;;;;;0.80;0.50;;;23.10;30.60;;;;;;5114367;28;20380;-73
2022/02/24 08:50:32;;;;;;;0.55;0.43;;;23.10;30.40;;;;;;5112389;28;20387;-73
2022/02/24 08:52:58;;;;;;;0.90;0.60;;;23.10;31.00;;;;;;5114013;28;20384;-74
2022/02/24 08:55:24;;;;;;;0.75;0.50;;;23.20;30.50;;;;;;5114389;28;20384;-74
2022/02/24 08:57:51;;;;;;;0.73;0.50;;;23.20;30.10;;;;;;5113719;28;20400;-73
2022/02/24 09:00:17;;;;;;;1.40;0.70;;;23.20;30.40;;;;;;5114124;28;20397;-74
2022/02/24 09:02:42;;;;;;;0.80;0.55;;;23.30;30.20;;;;;;5114237;28;20481;-74
2022/02/24 09:05:08;;;;;;;1.10;0.50;;;23.30;30.40;;;;;;5114089;28;20471;-73
2022/02/24 09:07:34;;;;;;;1.00;0.60;;;23.30;30.60;;;;;;5113699;28;20488;-73
2022/02/24 09:10:00;;;;;;;1.05;0.60;;;23.30;30.80;;;;;;5113982;28;20381;-74
2022/02/24 09:12:26;;;;;;;0.90;0.60;;;23.40;30.40;;;;;;5114070;28;20395;-74
2022/02/24 09:14:52;;;;;;;0.70;0.50;;;23.40;30.40;;;;;;5113963;28;20883;-74
2022/02/24 09:17:18;;;;;;;0.82;0.40;;;23.40;30.40;;;;;;5113775;28;20449;-74
2022/02/24 09:19:44;;;;;;;1.38;0.50;;;23.50;30.30;;;;;;5113389;28;20936;-74
2022/02/24 09:22:12;;;;;;;0.70;0.40;;;23.50;30.20;;;;;;5113901;27;20463;-74
2022/02/24 09:24:41;;;;;;;0.73;0.50;;;23.60;30.10;;;;;;5113863;28;20384;-74
2022/02/24 09:27:07;;;;;;;0.70;0.40;;;23.60;30.00;;;;;;5113826;28;20388;-75
2022/02/24 09:29:34;;;;;;;0.52;0.40;;;23.60;30.10;;;;;;5113388;28;20392;-73
2022/02/24 09:32:00;;;;;;;0.80;0.50;;;23.60;30.00;;;;;;5113541;28;20412;-74
2022/02/24 09:34:26;;;;;;;0.77;0.40;;;23.70;30.10;;;;;;5112552;28;20389;-73
2022/02/24 09:36:51;;;;;;;0.80;0.50;;;23.70;30.20;;;;;;5113455;28;20400;-74
2022/02/24 09:39:17;;;;;;;0.77;0.40;;;23.70;30.20;;;;;;5113508;28;20420;-74
2022/02/24 09:41:46;;;;;;;0.80;0.40;;;23.70;30.00;;;;;;5113090;28;20376;-74
2022/02/24 09:44:12;;;;;;;0.65;0.40;;;23.70;30.00;;;;;;5113290;28;20866;-74
2022/02/24 09:46:41;;;;;;;0.50;0.40;;;23.70;30.30;;;;;;5113458;27;20533;-73
2022/02/24 09:49:09;;;;;;;0.93;0.52;;;23.70;29.70;;;;;;5113292;28;20380;-74
2022/02/24 09:51:35;;;;;;;1.00;0.50;;;23.80;30.00;;;;;;5112917;27;20456;-73
2022/02/24 09:54:02;;;;;;;0.80;0.50;;;23.80;29.70;;;;;;5113095;28;20473;-73
2022/02/24 09:56:29;;;;;;;0.60;0.50;;;23.80;30.00;;;;;;5113161;28;20738;-73
2022/02/24 09:58:57;;;;;;;0.93;0.50;;;23.70;30.00;;;;;;5112974;28;20412;-74
2022/02/24 10:01:23;;;;;;;0.50;0.40;;;23.80;30.00;;;;;;5112641;28;20385;-74
2022/02/24 10:04:00;;;;;;;0.70;0.40;;;23.80;29.90;;;;;;5112575;28;20882;-74
2022/02/24 10:06:34;;;;;;;0.90;0.57;;;23.80;30.00;;;;;;5112494;28;20916;-74
2022/02/24 10:09:00;;;;;;;0.60;0.40;;;23.80;30.00;;;;;;5112393;28;20388;-73
2022/02/24 10:11:28;;;;;;;0.80;0.50;;;23.90;30.00;;;;;;5112926;28;20780;-74
2022/02/24 10:13:58;;;;;;;0.60;0.40;;;23.80;30.00;;;;;;5112365;28;20392;-73
2022/02/24 10:16:24;;;;;;;0.90;0.60;;;23.90;30.00;;;;;;5112871;28;20433;-73
2022/02/24 10:18:50;;;;;;;0.80;0.47;;;23.90;30.00;;;;;;5111496;28;20408;-73
2022/02/24 10:21:18;;;;;;;0.75;0.50;;;23.90;30.10;;;;;;5112704;28;20429;-75
2022/02/24 10:23:44;;;;;;;0.82;0.50;;;22.20;29.30;;;;;;5112046;28;20471;-74
2022/02/24 10:26:14;;;;;;;1.27;0.50;;;23.90;29.90;;;;;;5112574;28;20380;-73
2022/02/24 10:28:49;;;;;;;0.80;0.40;;;23.90;30.20;;;;;;5112640;28;20385;-73
2022/02/24 10:31:20;;;;;;;0.65;0.40;;;23.90;30.00;;;;;;5112538;28;20384;-73
2022/02/24 10:33:51;;;;;;;1.00;0.40;;;23.90;29.90;;;;;;5111929;28;20385;-74
2022/02/24 10:36:22;;;;;;;0.80;0.40;;;24.60;30.30;;;;;;5110965;28;20423;-74
2022/02/24 10:39:00;;;;;;;0.60;0.40;;;23.90;30.10;;;;;;5110937;28;20495;-74
2022/02/24 10:41:34;;;;;;;0.70;0.50;;;23.90;29.80;;;;;;5111069;28;20384;-73
2022/02/24 10:44:12;;;;;;;0.85;0.50;;;23.90;29.90;;;;;;5110764;28;20491;-74
2022/02/24 10:46:38;;;;;;;0.65;0.40;;;23.90;29.90;;;;;;5111008;28;20399;-73
2022/02/24 10:49:04;;;;;;;0.95;0.47;;;23.90;29.80;;;;;;5110732;28;20428;-74
2022/02/24 10:51:34;;;;;;;1.02;0.60;;;23.90;29.90;;;;;;5110512;28;20473;-73
2022/02/24 10:54:04;;;;;;;0.60;0.40;;;24.00;30.00;;;;;;5110529;28;20389;-74
2022/02/24 10:56:31;;;;;;;0.80;0.50;;;24.00;30.10;;;;;;5112201;28;20384;-74
2022/02/24 10:58:57;;;;;;;1.00;0.50;;;24.00;30.00;;;;;;5110648;28;20416;-73
2022/02/24 11:01:25;;;;;;;0.57;0.47;;;24.00;30.10;;;;;;5111918;28;20930;-74
2022/02/24 11:03:52;;;;;;;0.98;0.60;;;23.90;30.00;;;;;;5110208;28;20403;-74
2022/02/24 11:06:21;;;;;;;0.70;0.50;;;23.90;29.90;;;;;;5110611;28;20467;-73
2022/02/24 11:08:47;;;;;;;0.73;0.50;;;24.00;29.90;;;;;;5110425;28;20385;-73
2022/02/24 11:11:24;;;;;;;1.02;0.50;;;24.00;29.80;;;;;;5110646;28;20791;-74
2022/02/24 11:13:50;;;;;;;0.63;0.45;;;24.00;29.80;;;;;;5109380;28;20774;-73
2022/02/24 11:16:17;;;;;;;0.65;0.40;;;24.10;30.10;;;;;;5110439;28;20780;-74
2022/02/24 11:18:44;;;;;;;1.00;0.43;;;24.00;30.00;;;;;;5110589;28;20419;-74
2022/02/24 11:21:16;;;;;;;0.63;0.40;;;24.00;29.80;;;;;;5111784;28;20383;-74
2022/02/24 11:23:44;;;;;;;0.68;0.40;;;24.10;29.80;;;;;;5109272;28;20392;-74
2022/02/24 11:26:22;;;;;;;0.57;0.38;;;24.10;29.70;;;;;;5110397;28;20391;-74
2022/02/24 11:29:00;;;;;;;0.73;0.40;;;24.10;30.00;;;;;;5110431;28;20384;-74
2022/02/24 11:32:01;;;;;;;0.55;0.40;;;24.10;30.00;;;;;;5110448;28;20380;-74
2022/02/24 11:35:09;;;;;;;0.60;0.40;;;24.10;29.70;;;;;;5100017;28;20396;-74
2022/02/24 11:38:14;;;;;;;0.80;0.50;;;24.10;29.70;;;;;;5111441;28;20384;-74
2022/02/24 11:40:41;;;;;;;0.60;0.30;;;24.20;29.80;;;;;;5111255;28;20428;-74
2022/02/24 11:43:08;;;;;;;0.95;0.40;;;24.20;29.70;;;;;;5111443;28;20380;-73
2022/02/24 11:45:37;;;;;;;0.60;0.38;;;24.20;29.70;;;;;;5111347;28;20451;-74
2022/02/24 11:48:12;;;;;;;0.80;0.40;;;24.20;29.70;;;;;;5110052;28;20397;-74
2022/02/24 11:50:45;;;;;;;0.50;0.30;;;24.20;29.70;;;;;;5110307;28;20966;-74
2022/02/24 11:53:26;;;;;;;0.60;0.47;;;24.20;29.70;;;;;;5111562;28;20376;-74
2022/02/24 11:56:01;;;;;;;0.73;0.40;;;24.20;30.00;;;;;;5109772;28;20788;-74
2022/02/24 11:58:30;;;;;;;0.60;0.40;;;24.20;29.60;;;;;;5111423;28;20434;-74
2022/02/24 12:01:16;;;;;;;0.55;0.40;;;24.30;29.60;;;;;;5111491;28;20376;-74
2022/02/24 12:03:44;;;;;;;0.87;0.50;;;24.30;29.80;;;;;;5111300;28;20906;-73
2022/02/24 12:06:15;;;;;;;0.90;0.40;;;24.20;29.70;;;;;;5110229;28;20768;-74
2022/02/24 12:09:00;;;;;;;0.60;0.43;;;24.20;30.00;;;;;;5110191;28;20389;-74
2022/02/24 12:11:28;;;;;;;0.60;0.40;;;24.20;29.90;;;;;;5111310;28;20381;-74
2022/02/24 12:13:54;;;;;;;0.47;0.28;;;24.30;29.90;;;;;;5109656;28;20395;-74
2022/02/24 12:16:23;;;;;;;0.50;0.30;;;24.20;29.90;;;;;;5110164;28;20878;-74
2022/02/24 12:18:50;;;;;;;0.70;0.30;;;24.20;30.00;;;;;;5111131;28;20451;-74
2022/02/24 12:21:29;;;;;;;0.60;0.40;;;24.20;30.00;;;;;;5111366;28;20391;-74
2022/02/24 12:24:02;;;;;;;0.50;0.40;;;24.20;30.00;;;;;;5111340;28;20406;-74
2022/02/24 12:26:40;;;;;;;0.80;0.40;;;25.20;30.50;;;;;;5113701;28;20484;-74
2022/02/24 12:29:18;;;;;;;0.60;0.40;;;24.30;30.00;;;;;;5113603;28;20509;-74
2022/02/24 12:31:44;;;;;;;0.50;0.40;;;24.30;30.00;;;;;;5113375;28;21012;-74
2022/02/24 12:34:10;;;;;;;0.70;0.50;;;24.30;30.00;;;;;;5114861;28;20865;-75
2022/02/24 12:36:36;;;;;;;0.60;0.40;;;24.30;29.90;;;;;;5113510;28;20373;-75
2022/02/24 12:39:05;;;;;;;0.60;0.45;;;24.30;30.10;;;;;;5113347;28;20412;-75
2022/02/24 12:41:30;;;;;;;0.60;0.40;;;24.30;29.90;;;;;;5113524;28;20924;-75
2022/02/24 12:43:56;;;;;;;0.32;0.20;;;24.30;30.00;;;;;;5113863;28;20392;-74
2022/02/24 12:46:22;;;;;;;0.40;0.30;;;24.30;30.00;;;;;;5112929;28;20408;-74
2022/02/24 12:48:48;;;;;;;0.50;0.40;;;24.30;30.00;;;;;;5114531;28;20471;-75